Franklin, West Virginia
Current Conditions -  °F | °C
As of 3:15 PM on Monday 26 Jan 2015 (Local Time) from KW99 Reporting Station
Overcast Overcast  
Wind Chill:   Ceiling: 1300
Heat Index:   Visibility: 7mi
Dew Point: -1°   Wind: 3mph
Humidity: 96%   Direction: 10°N
Pressure: 29.69"   Gusts: NA
Location:  38.64°N, 79.33°W
Report Text: KW99 262015Z AUTO 01003KT 7SM OVC013 00/M01 A2969 RMK AO2 P0001 T10041009
Loading
Personal Weather Stations






























Interactive Weather Map New forecast layout! Learn more

10-Day Weather Forecast

Advertisements
Track Severe Weather on mobile